createdAt,value
2018-06-05T00:00:41.523Z,990.28
2018-06-05T00:01:51.068Z,990.26
2018-06-05T00:03:00.875Z,990.3
2018-06-05T00:04:10.939Z,990.27
2018-06-05T00:05:21.078Z,990.29
2018-06-05T00:06:31.154Z,990.26
2018-06-05T00:07:41.225Z,990.25
2018-06-05T00:08:51.302Z,990.22
2018-06-05T00:10:01.383Z,990.26
2018-06-05T00:11:11.446Z,990.22
2018-06-05T00:12:21.576Z,990.26
2018-06-05T00:13:31.642Z,990.23
2018-06-05T00:14:41.701Z,990.25
2018-06-05T00:15:51.534Z,990.24
2018-06-05T00:17:01.610Z,990.22
2018-06-05T00:18:11.678Z,990.18
2018-06-05T00:19:21.781Z,990.21
2018-06-05T00:20:31.878Z,990.2
2018-06-05T00:21:41.748Z,990.2
2018-06-05T00:22:51.864Z,990.17
2018-06-05T00:24:01.920Z,990.23
2018-06-05T00:25:11.477Z,990.19
2018-06-05T00:26:21.777Z,990.18
2018-06-05T00:27:31.852Z,990.22
2018-06-05T00:28:41.915Z,990.16
2018-06-05T00:29:51.988Z,990.16
2018-06-05T00:31:01.807Z,990.19
2018-06-05T00:32:11.628Z,990.12
2018-06-05T00:33:21.703Z,990.16
2018-06-05T00:34:31.773Z,990.13
2018-06-05T00:35:41.852Z,990.09
2018-06-05T00:36:51.943Z,990.09
2018-06-05T00:38:02.018Z,990.07
2018-06-05T00:39:12.092Z,990.12
2018-06-05T00:40:21.942Z,990.07
2018-06-05T00:41:32.030Z,990.1
2018-06-05T00:42:42.110Z,990.1
2018-06-05T00:43:52.174Z,990.08
2018-06-05T00:45:02.256Z,990.09
2018-06-05T00:46:12.337Z,990.13
2018-06-05T00:47:22.431Z,990.12
2018-06-05T00:48:32.270Z,990.12
2018-06-05T00:49:42.365Z,990.15
2018-06-05T00:50:52.437Z,990.12
2018-06-05T00:52:02.541Z,990.16
2018-06-05T00:53:12.352Z,990.15
2018-06-05T00:54:22.449Z,990.18
2018-06-05T00:55:32.515Z,990.23
2018-06-05T00:56:42.594Z,990.2
2018-06-05T00:57:52.710Z,990.22
2018-06-05T00:59:02.801Z,990.23
2018-06-05T01:00:12.878Z,990.25
2018-06-05T01:01:22.419Z,990.24
2018-06-05T01:02:32.285Z,990.23
2018-06-05T01:03:42.408Z,990.21
2018-06-05T01:04:52.480Z,990.23
2018-06-05T01:06:02.544Z,990.24
2018-06-05T01:07:12.366Z,990.27
2018-06-05T01:08:22.181Z,990.29
2018-06-05T01:09:32.002Z,990.33
2018-06-05T01:10:41.550Z,990.26
2018-06-05T01:11:51.646Z,990.3
2018-06-05T01:13:01.449Z,990.34
2018-06-05T01:14:10.993Z,990.32
2018-06-05T01:15:21.072Z,990.33
2018-06-05T01:16:30.901Z,990.37
2018-06-05T01:17:40.714Z,990.39
2018-06-05T01:18:50.771Z,990.37
2018-06-05T01:20:00.610Z,990.42
2018-06-05T01:21:10.663Z,990.41
2018-06-05T01:22:20.482Z,990.41
2018-06-05T01:23:30.550Z,990.4
2018-06-05T01:24:40.663Z,990.45
2018-06-05T01:25:50.746Z,990.42
2018-06-05T01:27:00.855Z,990.47
2018-06-05T01:28:10.922Z,990.48
2018-06-05T01:29:20.990Z,990.44
2018-06-05T01:30:31.075Z,990.43
2018-06-05T01:31:41.182Z,990.42
2018-06-05T01:32:51.317Z,990.49
2018-06-05T01:34:01.402Z,990.46
2018-06-05T01:35:11.477Z,990.5
2018-06-05T01:36:21.545Z,990.5
2018-06-05T01:37:31.110Z,990.51
2018-06-05T01:38:41.241Z,990.55
2018-06-05T01:39:51.045Z,990.54
2018-06-05T01:41:00.845Z,990.51
2018-06-05T01:42:10.382Z,990.5
2018-06-05T01:43:20.205Z,990.49
2018-06-05T01:44:30.267Z,990.49
2018-06-05T01:45:39.534Z,990.53
2018-06-05T01:46:49.333Z,990.5
2018-06-05T01:47:59.140Z,990.51
2018-06-05T01:49:09.261Z,990.5
2018-06-05T01:50:19.335Z,990.49
2018-06-05T01:51:29.404Z,990.47
2018-06-05T01:52:39.479Z,990.5
2018-06-05T01:53:49.567Z,990.42
2018-06-05T01:54:59.639Z,990.49
2018-06-05T01:56:09.726Z,990.49
2018-06-05T01:57:19.813Z,990.49
2018-06-05T01:58:29.887Z,990.49
2018-06-05T01:59:39.950Z,990.51
2018-06-05T02:00:50.035Z,990.48
2018-06-05T02:02:00.104Z,990.49
2018-06-05T02:03:10.178Z,990.49
2018-06-05T02:04:20.264Z,990.49
2018-06-05T02:05:30.328Z,990.49
2018-06-05T02:06:40.428Z,990.46
2018-06-05T02:07:50.246Z,990.48
2018-06-05T02:09:00.315Z,990.45
2018-06-05T02:10:10.397Z,990.49
2018-06-05T02:11:20.466Z,990.49
2018-06-05T02:12:30.539Z,990.48
2018-06-05T02:13:40.096Z,990.51
2018-06-05T02:14:49.898Z,990.52
2018-06-05T02:15:59.970Z,990.58
2018-06-05T02:17:09.770Z,990.53
2018-06-05T02:18:19.058Z,990.59
2018-06-05T02:19:28.869Z,990.57
2018-06-05T02:20:38.670Z,990.6
2018-06-05T02:21:48.742Z,990.56
2018-06-05T02:22:58.283Z,990.59
2018-06-05T02:24:08.361Z,990.58
2018-06-05T02:25:18.426Z,990.58
2018-06-05T02:26:28.251Z,990.6
2018-06-05T02:27:38.327Z,990.55
2018-06-05T02:28:48.399Z,990.56
2018-06-05T02:29:58.490Z,990.6
2018-06-05T02:31:08.585Z,990.59
2018-06-05T02:32:18.435Z,990.63
2018-06-05T02:33:28.518Z,990.65
2018-06-05T02:34:38.601Z,990.64
2018-06-05T02:35:48.684Z,990.65
2018-06-05T02:36:58.765Z,990.66
2018-06-05T02:38:08.856Z,990.67
2018-06-05T02:39:18.931Z,990.68
2018-06-05T02:40:28.732Z,990.66
2018-06-05T02:41:38.820Z,990.67
2018-06-05T02:42:48.677Z,990.65
2018-06-05T02:43:58.761Z,990.65
2018-06-05T02:45:08.913Z,990.63
2018-06-05T02:46:18.990Z,990.64
2018-06-05T02:47:29.063Z,990.6
2018-06-05T02:48:39.196Z,990.6
2018-06-05T02:49:49.008Z,990.61
2018-06-05T02:50:59.092Z,990.63
2018-06-05T02:52:08.911Z,990.64
2018-06-05T02:53:18.997Z,990.66
2018-06-05T02:54:29.054Z,990.61
2018-06-05T02:55:39.137Z,990.59
2018-06-05T02:56:49.260Z,990.6
2018-06-05T02:57:59.342Z,990.6
2018-06-05T02:59:09.154Z,990.58
2018-06-05T03:00:19.222Z,990.61
2018-06-05T03:01:29.297Z,990.58
2018-06-05T03:02:38.844Z,990.59
2018-06-05T03:34:57.697Z,990.67
2018-06-05T03:36:07.793Z,990.66
2018-06-05T03:37:17.865Z,990.64
2018-06-05T03:38:27.945Z,990.71
2018-06-05T03:39:38.005Z,990.68
2018-06-05T03:40:47.898Z,990.69
2018-06-05T03:41:58.113Z,990.72
2018-06-05T03:43:08.175Z,990.74
2018-06-05T03:44:18.247Z,990.75
2018-06-05T03:45:28.302Z,990.69
2018-06-05T03:46:37.850Z,990.72
2018-06-05T03:47:47.942Z,990.7
2018-06-05T03:48:58.018Z,990.72
2018-06-05T03:50:08.096Z,990.74
2018-06-05T03:51:18.162Z,990.69
2018-06-05T03:52:28.268Z,990.72
2018-06-05T03:53:38.341Z,990.73
2018-06-05T03:54:47.885Z,990.73
2018-06-05T03:55:57.980Z,990.77
2018-06-05T03:57:08.065Z,990.72
2018-06-05T03:58:18.238Z,990.72
2018-06-05T03:59:28.066Z,990.74
2018-06-05T04:00:38.158Z,990.71
2018-06-05T04:01:48.225Z,990.75
2018-06-05T04:02:58.291Z,990.79
2018-06-05T04:04:08.350Z,990.8
2018-06-05T04:05:18.170Z,990.81
2018-06-05T04:06:28.252Z,990.79
2018-06-05T04:07:38.062Z,990.78
2018-06-05T04:08:48.132Z,990.8
2018-06-05T04:09:58.270Z,990.82
2018-06-05T04:11:08.337Z,990.83
2018-06-05T04:12:18.140Z,990.78
2018-06-05T04:13:28.217Z,990.8
2018-06-05T04:14:38.281Z,990.84
2018-06-05T04:15:48.344Z,990.83
2018-06-05T04:16:58.409Z,990.87
2018-06-05T04:18:08.467Z,990.94
2018-06-05T04:19:18.629Z,991.13
2018-06-05T04:20:28.709Z,991.14
2018-06-05T04:21:38.780Z,991.13
2018-06-05T04:22:48.859Z,991.16
2018-06-05T04:23:58.925Z,991.21
2018-06-05T04:25:08.727Z,991.2
2018-06-05T04:26:18.545Z,991.27
2018-06-05T04:27:28.670Z,991.28
2018-06-05T04:28:38.746Z,991.27
2018-06-05T04:29:48.059Z,991.28
2018-06-05T04:30:58.143Z,991.24
2018-06-05T04:32:07.708Z,991.15
2018-06-05T04:33:17.567Z,991.18
2018-06-05T04:34:27.645Z,991.13
2018-06-05T04:35:37.457Z,991.09
2018-06-05T04:36:47.534Z,991.09
2018-06-05T04:37:57.624Z,991.09
2018-06-05T04:39:07.435Z,991.11
2018-06-05T04:40:17.516Z,991.08
2018-06-05T04:41:27.597Z,991.11
2018-06-05T04:42:37.697Z,991.13
2018-06-05T04:43:47.776Z,991.16
2018-06-05T04:44:57.845Z,991.2
2018-06-05T04:46:07.937Z,991.19
2018-06-05T04:47:18.006Z,991.23
2018-06-05T04:48:28.099Z,991.24
2018-06-05T04:49:38.177Z,991.29
2018-06-05T04:50:48.287Z,991.24
2018-06-05T04:51:58.360Z,991.3
2018-06-05T04:53:08.224Z,991.33
2018-06-05T04:54:18.188Z,991.36
2018-06-05T04:55:28.280Z,991.38
2018-06-05T04:56:38.408Z,991.39
2018-06-05T04:57:47.975Z,991.39
2018-06-05T04:58:58.065Z,991.35
2018-06-05T05:00:08.142Z,991.41
2018-06-05T05:01:18.209Z,991.36
2018-06-05T05:02:28.272Z,991.32
2018-06-05T05:03:38.351Z,991.31
2018-06-05T05:04:48.441Z,991.29
2018-06-05T05:05:58.516Z,991.27
2018-06-05T05:07:08.605Z,991.26
2018-06-05T05:08:18.734Z,991.28
2018-06-05T05:09:28.813Z,991.25
2018-06-05T05:10:38.900Z,991.27
2018-06-05T05:11:48.981Z,991.31
2018-06-05T05:12:59.066Z,991.29
2018-06-05T05:14:08.892Z,991.29
2018-06-05T05:15:18.960Z,991.31
2018-06-05T05:16:29.021Z,991.29
2018-06-05T05:17:39.084Z,991.34
2018-06-05T05:18:49.162Z,991.34
2018-06-05T05:19:59.243Z,991.43
2018-06-05T05:21:09.323Z,991.81
2018-06-05T05:22:19.387Z,991.95
2018-06-05T05:23:29.455Z,991.73
2018-06-05T05:24:39.526Z,991.82
2018-06-05T05:25:49.600Z,991.77
2018-06-05T05:26:59.670Z,991.65
2018-06-05T05:28:09.753Z,991.8
2018-06-05T05:29:19.597Z,991.9
2018-06-05T05:30:29.671Z,991.79
2018-06-05T05:31:39.808Z,991.84
2018-06-05T05:32:49.644Z,991.95
2018-06-05T05:33:59.481Z,991.96
2018-06-05T05:35:09.567Z,991.88
2018-06-05T05:36:19.638Z,991.88
2018-06-05T05:37:29.744Z,991.93
2018-06-05T05:38:39.812Z,991.98
2018-06-05T05:39:49.889Z,992.04
2018-06-05T05:41:00.007Z,992.02
2018-06-05T05:42:09.835Z,992.01
2018-06-05T05:43:19.971Z,992.02
2018-06-05T05:44:30.067Z,992.11
2018-06-05T05:45:40.153Z,992.13
2018-06-05T05:46:50.250Z,992.13
2018-06-05T05:48:00.076Z,992.11
2018-06-05T05:49:10.218Z,992.04
2018-06-05T05:50:20.289Z,992.11
2018-06-05T05:51:30.098Z,992.16
2018-06-05T05:52:40.184Z,992.12
2018-06-05T05:53:50.260Z,992.06
2018-06-05T05:55:00.415Z,992.08
2018-06-05T05:56:10.221Z,992.13
2018-06-05T05:57:20.322Z,992.09
2018-06-05T05:58:30.394Z,992.05
2018-06-05T05:59:40.245Z,991.96
2018-06-05T06:00:50.375Z,991.99
2018-06-05T06:02:00.457Z,992.03
2018-06-05T06:03:10.542Z,992
2018-06-05T06:04:20.624Z,991.98
2018-06-05T06:05:30.695Z,991.95
2018-06-05T06:06:40.793Z,991.93
2018-06-05T06:07:50.894Z,991.95
2018-06-05T06:09:00.988Z,991.96
2018-06-05T06:10:10.818Z,991.95
2018-06-05T06:11:20.618Z,991.9
2018-06-05T06:12:30.480Z,991.91
2018-06-05T06:13:40.573Z,991.97
2018-06-05T06:14:50.673Z,991.97
2018-06-05T06:16:00.496Z,991.93
2018-06-05T06:17:10.327Z,991.95
2018-06-05T06:18:20.187Z,991.95
2018-06-05T06:19:29.739Z,991.94
2018-06-05T06:20:39.307Z,991.89
2018-06-05T06:21:49.410Z,991.94
2018-06-05T06:22:59.490Z,991.89
2018-06-05T06:24:09.352Z,991.89
2018-06-05T06:25:18.915Z,991.87
2018-06-05T06:26:29.065Z,991.87
2018-06-05T06:27:39.151Z,991.87
2018-06-05T06:28:49.225Z,991.89
2018-06-05T06:29:59.309Z,991.89
2018-06-05T06:31:09.391Z,991.87
2018-06-05T06:32:19.471Z,991.89
2018-06-05T06:33:29.274Z,991.82
2018-06-05T06:34:39.092Z,991.85
2018-06-05T06:35:49.162Z,991.86
2018-06-05T06:36:59.243Z,991.83
2018-06-05T06:38:09.335Z,991.81
2018-06-05T06:39:19.440Z,991.82
2018-06-05T06:40:29.506Z,991.76
2018-06-05T06:41:39.649Z,991.75
2018-06-05T06:42:49.715Z,991.71
2018-06-05T06:43:59.789Z,991.7
2018-06-05T06:45:09.918Z,991.71
2018-06-05T06:46:20.010Z,991.75
2018-06-05T06:47:30.098Z,991.71
2018-06-05T06:48:40.213Z,991.7
2018-06-05T06:49:50.577Z,991.72
2018-06-05T06:51:00.636Z,991.7
2018-06-05T06:52:10.465Z,991.7
2018-06-05T06:53:20.539Z,991.7
2018-06-05T06:54:30.629Z,991.72
2018-06-05T06:55:40.549Z,991.72
2018-06-05T06:56:50.626Z,991.71
2018-06-05T06:58:00.438Z,991.68
2018-06-05T06:59:10.563Z,991.7
2018-06-05T07:00:20.644Z,991.66
2018-06-05T07:01:30.477Z,991.66
2018-06-05T07:02:40.578Z,991.66
2018-06-05T07:03:50.703Z,991.62
2018-06-05T07:05:00.563Z,991.63
2018-06-05T07:06:10.655Z,991.67
2018-06-05T07:07:20.771Z,991.67
2018-06-05T07:08:30.592Z,991.64
2018-06-05T07:09:40.679Z,991.64
2018-06-05T07:10:50.490Z,991.65
2018-06-05T07:12:00.316Z,991.63
2018-06-05T07:13:10.384Z,991.61
2018-06-05T07:14:20.203Z,991.63
2018-06-05T07:15:30.295Z,991.64
2018-06-05T07:16:40.361Z,991.62
2018-06-05T07:17:50.445Z,991.64
2018-06-05T07:19:00.536Z,991.64
2018-06-05T07:20:10.621Z,991.62
2018-06-05T07:21:20.705Z,991.65
2018-06-05T07:22:30.789Z,991.63
2018-06-05T07:23:40.861Z,991.61
2018-06-05T07:24:50.946Z,991.65
2018-06-05T07:26:01.039Z,991.66
2018-06-05T07:27:11.145Z,991.69
2018-06-05T07:28:20.954Z,991.67
2018-06-05T07:29:30.770Z,991.65
2018-06-05T07:30:40.847Z,991.61
2018-06-05T07:31:50.933Z,991.67
2018-06-05T07:33:01.026Z,991.64
2018-06-05T07:34:11.113Z,991.65
2018-06-05T07:35:20.945Z,991.68
2018-06-05T07:36:30.768Z,991.65
2018-06-05T07:37:40.867Z,991.63
2018-06-05T07:38:50.427Z,991.6
2018-06-05T07:40:00.250Z,991.64
2018-06-05T07:41:10.319Z,991.61
2018-06-05T07:42:19.882Z,991.64
2018-06-05T07:43:29.971Z,991.61
2018-06-05T07:44:40.039Z,991.55
2018-06-05T07:45:50.120Z,991.63
2018-06-05T07:46:59.935Z,991.61
2018-06-05T07:48:10.039Z,991.58
2018-06-05T07:49:20.126Z,991.59
2018-06-05T07:50:29.943Z,991.55
2018-06-05T07:51:40.037Z,991.56
2018-06-05T07:52:49.865Z,991.53
2018-06-05T07:53:59.957Z,991.6
2018-06-05T07:55:09.815Z,991.57
2018-06-05T07:56:19.793Z,991.54
2018-06-05T07:57:29.865Z,991.55
2018-06-05T07:58:39.951Z,991.52
2018-06-05T07:59:50.050Z,991.51
2018-06-05T08:01:00.142Z,991.51
2018-06-05T08:02:10.225Z,991.53
2018-06-05T08:03:20.341Z,991.5
2018-06-05T08:04:30.156Z,991.53
2018-06-05T08:05:40.252Z,991.55
2018-06-05T08:06:50.345Z,991.51
2018-06-05T08:08:00.423Z,991.52
2018-06-05T08:09:09.716Z,991.54
2018-06-05T08:10:19.796Z,991.53
2018-06-05T08:11:29.893Z,991.53
2018-06-05T08:12:39.982Z,991.57
2018-06-05T08:13:49.805Z,991.5
2018-06-05T08:14:59.896Z,991.53
2018-06-05T08:16:09.972Z,991.5
2018-06-05T08:17:20.045Z,991.5
2018-06-05T08:18:29.893Z,991.49
2018-06-05T08:19:39.770Z,991.48
2018-06-05T08:20:49.826Z,991.42
2018-06-05T08:21:59.372Z,991.46
2018-06-05T08:23:09.204Z,991.52
2018-06-05T08:24:19.011Z,991.49
2018-06-05T08:25:29.263Z,991.49
2018-06-05T08:26:39.354Z,991.5
2018-06-05T08:27:49.445Z,991.54
2018-06-05T08:28:59.338Z,991.57
2018-06-05T08:30:09.171Z,991.6
2018-06-05T08:31:19.269Z,991.58
2018-06-05T08:32:29.087Z,991.59
2018-06-05T08:33:39.169Z,991.56
2018-06-05T08:34:49.488Z,991.6
2018-06-05T08:35:59.295Z,991.6
2018-06-05T08:37:09.366Z,991.58
2018-06-05T08:38:19.444Z,991.54
2018-06-05T08:39:29.266Z,991.58
2018-06-05T08:40:39.330Z,991.58
2018-06-05T08:41:49.410Z,991.61
2018-06-05T08:42:59.514Z,991.64
2018-06-05T08:44:09.597Z,991.61
2018-06-05T08:45:19.400Z,991.6
2018-06-05T08:46:29.214Z,991.6
2018-06-05T08:47:39.319Z,991.63
2018-06-05T08:48:49.412Z,991.62
2018-06-05T08:49:59.474Z,991.65
2018-06-05T08:51:09.565Z,991.65
2018-06-05T08:52:19.636Z,991.63
2018-06-05T08:53:29.448Z,991.66
2018-06-05T08:54:39.524Z,991.68
2018-06-05T08:55:49.598Z,991.63
2018-06-05T08:56:59.696Z,991.61
2018-06-05T08:58:09.764Z,991.62
2018-06-05T08:59:19.563Z,991.63
2018-06-05T09:00:29.149Z,991.64
2018-06-05T09:01:38.688Z,991.57
2018-06-05T09:02:48.802Z,991.63
2018-06-05T09:03:58.640Z,991.6
2018-06-05T09:05:08.723Z,991.62
2018-06-05T09:06:19.028Z,991.63
2018-06-05T09:07:29.115Z,991.62
2018-06-05T09:08:39.211Z,991.6
2018-06-05T09:09:49.303Z,991.55
2018-06-05T09:10:59.431Z,991.54
2018-06-05T09:12:09.575Z,991.55
2018-06-05T09:13:19.657Z,991.56
2018-06-05T09:14:29.740Z,991.64
2018-06-05T09:15:39.829Z,991.56
2018-06-05T09:16:49.932Z,991.63
2018-06-05T09:17:59.764Z,991.63
2018-06-05T09:19:09.606Z,991.59
2018-06-05T09:20:19.703Z,991.6
2018-06-05T09:21:29.698Z,991.6
2018-06-05T09:22:39.782Z,991.62
2018-06-05T09:23:49.871Z,991.61
2018-06-05T09:24:59.969Z,991.58
2018-06-05T09:26:10.048Z,991.61
2018-06-05T09:27:20.165Z,991.55
2018-06-05T09:28:30.246Z,991.59
2018-06-05T09:29:40.353Z,991.64
2018-06-05T09:30:50.433Z,991.59
2018-06-05T09:32:00.538Z,991.56
2018-06-05T09:33:10.613Z,991.53
2018-06-05T09:34:20.708Z,991.53
2018-06-05T09:35:31.101Z,991.48
2018-06-05T09:36:41.183Z,991.51
2018-06-05T09:37:51.255Z,991.51
2018-06-05T09:39:01.083Z,991.46
2018-06-05T09:40:11.173Z,991.45
2018-06-05T09:41:21.265Z,991.49
2018-06-05T09:42:31.413Z,991.47
2018-06-05T09:43:41.504Z,991.46
2018-06-05T09:44:51.351Z,991.46
2018-06-05T09:46:01.423Z,991.46
2018-06-05T09:47:11.504Z,991.48
2018-06-05T09:48:21.342Z,991.45
2018-06-05T09:49:31.147Z,991.47
2018-06-05T09:50:40.973Z,991.48
2018-06-05T09:51:51.053Z,991.44
2018-06-05T09:53:01.030Z,991.43
2018-06-05T09:54:11.121Z,991.39
2018-06-05T09:55:21.194Z,991.38
2018-06-05T09:56:31.043Z,991.4
2018-06-05T09:57:40.899Z,991.41
2018-06-05T09:58:51.730Z,991.35
2018-06-05T10:00:01.828Z,991.39
2018-06-05T10:01:11.394Z,991.42
2018-06-05T10:02:20.950Z,991.39
2018-06-05T10:03:30.523Z,991.39
2018-06-05T10:04:40.589Z,991.33
2018-06-05T10:05:50.668Z,991.32
2018-06-05T10:07:00.468Z,991.28
2018-06-05T10:08:10.300Z,991.25
2018-06-05T10:09:20.378Z,991.24
2018-06-05T10:10:30.452Z,991.25
2018-06-05T10:11:40.269Z,991.22
2018-06-05T10:12:50.102Z,991.19
2018-06-05T10:14:00.183Z,991.13
2018-06-05T10:15:10.149Z,991.11
2018-06-05T10:16:20.241Z,991.16
2018-06-05T10:17:30.060Z,991.21
2018-06-05T10:18:40.154Z,991.11
2018-06-05T10:19:50.224Z,991.1
2018-06-05T10:21:00.321Z,991.14
2018-06-05T10:22:10.407Z,991.1
2018-06-05T10:23:20.485Z,991.07
2018-06-05T10:24:30.317Z,991.09
2018-06-05T10:25:40.132Z,991.05
2018-06-05T10:26:50.266Z,991.05
2018-06-05T10:28:00.104Z,990.98
2018-06-05T10:29:09.933Z,990.95
2018-06-05T10:30:20.013Z,991.03
2018-06-05T10:31:29.951Z,990.95
2018-06-05T10:32:40.021Z,990.96
2018-06-05T10:33:49.848Z,990.93
2018-06-05T10:34:59.950Z,990.93
2018-06-05T10:36:09.805Z,990.94
2018-06-05T10:37:19.620Z,990.92
2018-06-05T10:38:29.448Z,990.91
2018-06-05T10:39:39.537Z,990.93
2018-06-05T10:40:49.367Z,990.89
2018-06-05T10:41:59.451Z,990.91
2018-06-05T10:43:09.286Z,990.87
2018-06-05T10:44:19.367Z,990.83
2018-06-05T10:45:28.937Z,990.86
2018-06-05T10:46:39.065Z,990.83
2018-06-05T10:47:49.454Z,990.81
2018-06-05T10:48:59.831Z,990.78
2018-06-05T10:50:09.927Z,990.75
2018-06-05T10:51:20.013Z,990.76
2018-06-05T10:52:29.822Z,990.8
2018-06-05T10:53:39.943Z,990.77
2018-06-05T10:54:50.261Z,990.79
2018-06-05T10:56:00.361Z,990.75
2018-06-05T10:57:10.438Z,990.72
2018-06-05T10:58:20.254Z,990.73
2018-06-05T10:59:30.067Z,990.63
2018-06-05T11:00:40.201Z,990.62
2018-06-05T11:01:50.288Z,990.66
2018-06-05T11:03:00.407Z,990.63
2018-06-05T11:04:10.517Z,990.67
2018-06-05T11:05:20.602Z,990.66
2018-06-05T11:06:30.683Z,990.69
2018-06-05T11:07:40.513Z,990.66
2018-06-05T11:08:50.584Z,990.65
2018-06-05T11:10:00.675Z,990.56
2018-06-05T11:11:10.783Z,990.54
2018-06-05T11:12:20.601Z,990.5
2018-06-05T11:13:30.455Z,990.53
2018-06-05T11:14:40.539Z,990.52
2018-06-05T11:15:50.636Z,990.5
2018-06-05T11:17:00.726Z,990.51
2018-06-05T11:18:10.596Z,990.54
2018-06-05T11:19:20.857Z,990.5
2018-06-05T11:20:30.944Z,990.53
2018-06-05T11:21:40.785Z,990.48
2018-06-05T11:22:50.863Z,990.47
2018-06-05T11:24:00.944Z,990.48
2018-06-05T11:25:11.050Z,990.49
2018-06-05T11:26:21.152Z,990.46
2018-06-05T11:27:31.267Z,990.48
2018-06-05T11:28:41.354Z,990.5
2018-06-05T11:29:51.436Z,990.39
2018-06-05T11:31:01.324Z,990.43
2018-06-05T11:32:11.428Z,990.39
2018-06-05T11:33:21.512Z,990.39
2018-06-05T11:34:31.603Z,990.4
2018-06-05T11:35:41.711Z,990.39
2018-06-05T11:36:51.846Z,990.38
2018-06-05T11:38:01.761Z,990.43
2018-06-05T11:39:11.870Z,990.43
2018-06-05T11:40:21.964Z,990.47
2018-06-05T11:41:32.055Z,990.45
2018-06-05T11:42:42.213Z,990.52
2018-06-05T11:43:52.304Z,990.52
2018-06-05T11:45:02.412Z,990.49
2018-06-05T11:46:12.522Z,990.48
2018-06-05T11:47:22.353Z,990.52
2018-06-05T11:48:32.445Z,990.48
2018-06-05T11:49:42.275Z,990.5
2018-06-05T11:50:52.352Z,990.5
2018-06-05T11:52:02.444Z,990.5
2018-06-05T11:53:12.299Z,990.47
2018-06-05T11:54:22.437Z,990.5
2018-06-05T11:55:32.562Z,990.49
2018-06-05T11:56:42.673Z,990.52
2018-06-05T11:57:52.784Z,990.43
2018-06-05T11:59:03.108Z,990.46
2018-06-05T12:00:13.200Z,990.39
2018-06-05T12:01:23.023Z,990.44
2018-06-05T12:02:33.117Z,990.39
2018-06-05T12:03:42.418Z,990.32
2018-06-05T12:04:52.498Z,990.34
2018-06-05T12:06:02.580Z,990.32
2018-06-05T12:07:12.661Z,990.28
2018-06-05T12:08:22.766Z,990.29
2018-06-05T12:09:32.871Z,990.29
2018-06-05T12:10:42.967Z,990.29
2018-06-05T12:11:53.103Z,990.26
2018-06-05T12:13:03.179Z,990.28
2018-06-05T12:14:13.031Z,990.23
2018-06-05T12:15:23.110Z,990.2
2018-06-05T12:16:33.236Z,990.26
2018-06-05T12:17:43.389Z,990.24
2018-06-05T12:18:53.318Z,990.24
2018-06-05T12:20:03.415Z,990.24
2018-06-05T12:21:13.522Z,990.21
2018-06-05T12:22:23.597Z,990.2
2018-06-05T12:23:33.692Z,990.23
2018-06-05T12:24:43.785Z,990.23
2018-06-05T12:25:53.878Z,990.25
2018-06-05T12:27:03.953Z,990.21
2018-06-05T12:28:14.045Z,990.16
2018-06-05T12:29:24.109Z,990.2
2018-06-05T12:30:34.183Z,990.2
2018-06-05T12:31:44.288Z,990.16
2018-06-05T12:32:54.388Z,990.13
2018-06-05T12:34:04.216Z,990.09
2018-06-05T12:35:14.359Z,990.04
2018-06-05T12:36:24.435Z,990.04
2018-06-05T12:37:34.538Z,990.04
2018-06-05T12:38:44.613Z,990.02
2018-06-05T12:39:54.689Z,990.01
2018-06-05T12:41:04.781Z,990.01
2018-06-05T12:42:14.859Z,989.98
2018-06-05T12:43:24.931Z,990.01
2018-06-05T12:44:35.029Z,990
2018-06-05T12:45:45.129Z,989.98
2018-06-05T12:46:54.962Z,989.94
2018-06-05T12:48:04.523Z,989.95
2018-06-05T12:49:14.335Z,989.94
2018-06-05T12:50:24.180Z,989.89
2018-06-05T12:51:34.273Z,989.89
2018-06-05T12:52:44.337Z,989.88
2018-06-05T12:53:54.187Z,989.76
2018-06-05T12:55:03.753Z,989.9
2018-06-05T12:56:13.843Z,989.86
2018-06-05T12:57:23.672Z,989.9
2018-06-05T12:58:33.812Z,989.87
2018-06-05T12:59:43.895Z,989.86
2018-06-05T13:00:54.003Z,989.91
2018-06-05T13:02:04.073Z,989.89
2018-06-05T13:03:13.887Z,989.86
2018-06-05T13:04:24.024Z,989.88
2018-06-05T13:05:34.145Z,989.91
2018-06-05T13:06:44.471Z,989.9
2018-06-05T13:07:54.541Z,989.85
2018-06-05T13:09:04.118Z,989.83
2018-06-05T13:10:13.954Z,989.88
2018-06-05T13:11:24.071Z,989.86
2018-06-05T13:12:33.944Z,989.88
2018-06-05T13:13:43.778Z,989.79
2018-06-05T13:14:53.867Z,989.83
2018-06-05T13:16:03.693Z,989.91
2018-06-05T13:17:13.525Z,989.88
2018-06-05T13:18:23.793Z,989.8
2018-06-05T13:19:33.899Z,989.87
2018-06-05T13:20:43.995Z,989.81
2018-06-05T13:21:54.124Z,989.84
2018-06-05T13:23:04.307Z,989.88
2018-06-05T13:24:14.860Z,989.87
2018-06-05T13:25:24.948Z,989.87
2018-06-05T13:26:34.788Z,989.92
2018-06-05T13:27:44.884Z,989.86
2018-06-05T13:28:54.967Z,989.88
2018-06-05T13:30:04.798Z,989.95
2018-06-05T13:31:14.619Z,990.14
2018-06-05T13:32:24.730Z,990
2018-06-05T13:33:34.825Z,989.94
2018-06-05T13:34:44.382Z,990.07
2018-06-05T13:35:54.480Z,990.08
2018-06-05T13:37:04.545Z,990.12
2018-06-05T13:38:14.649Z,990.24
2018-06-05T13:39:24.238Z,990.26
2018-06-05T13:40:34.346Z,990.2
2018-06-05T13:41:44.436Z,990.34
2018-06-05T13:42:54.686Z,990.24
2018-06-05T13:44:04.828Z,990.23
2018-06-05T13:45:15.032Z,990.23
2018-06-05T13:46:24.856Z,990.2
2018-06-05T13:47:34.947Z,990.26
2018-06-05T13:48:45.044Z,990.24
2018-06-05T13:49:54.854Z,990.22
2018-06-05T13:51:04.669Z,990.21
2018-06-05T13:52:14.764Z,990.24
2018-06-05T13:53:25.019Z,990.22
2018-06-05T13:54:35.115Z,990.3
2018-06-05T13:55:44.956Z,990.14
2018-06-05T13:56:55.126Z,990.17
2018-06-05T13:58:04.973Z,990.17
2018-06-05T13:59:15.089Z,990.14
2018-06-05T14:00:24.946Z,990.18
2018-06-05T14:01:34.789Z,990.18
2018-06-05T14:02:44.878Z,990.2
2018-06-05T14:03:54.690Z,990.18
2018-06-05T14:05:04.785Z,990.18
2018-06-05T14:06:14.868Z,990.12
2018-06-05T14:07:24.701Z,990.09
2018-06-05T14:08:34.840Z,990.07
2018-06-05T14:09:44.930Z,990.03
2018-06-05T14:10:55.026Z,990.01
2018-06-05T14:12:04.878Z,990.02
2018-06-05T14:13:14.979Z,990.01
2018-06-05T14:14:24.849Z,990
2018-06-05T14:15:34.940Z,989.94
2018-06-05T14:16:45.055Z,989.95
2018-06-05T14:17:54.612Z,989.96
2018-06-05T14:19:04.740Z,989.94
2018-06-05T14:20:14.843Z,989.92
2018-06-05T14:21:24.665Z,989.98
2018-06-05T14:22:34.758Z,989.94
2018-06-05T14:23:44.556Z,989.92
2018-06-05T14:24:54.386Z,989.94
2018-06-05T14:26:04.492Z,989.96
2018-06-05T14:27:14.616Z,989.91
2018-06-05T14:28:24.709Z,989.89
2018-06-05T14:29:34.809Z,989.83
2018-06-05T14:30:44.641Z,989.78
2018-06-05T14:31:54.211Z,989.77
2018-06-05T14:33:04.038Z,989.82
2018-06-05T14:34:14.142Z,989.76
2018-06-05T14:35:24.285Z,989.71
2018-06-05T14:36:34.649Z,989.72
2018-06-05T14:37:44.740Z,989.7
2018-06-05T14:38:54.833Z,989.69
2018-06-05T14:40:04.670Z,989.69
2018-06-05T14:41:14.780Z,989.66
2018-06-05T14:42:24.887Z,989.71
2018-06-05T14:43:34.481Z,989.69
2018-06-05T14:44:44.557Z,989.73
2018-06-05T14:45:54.503Z,989.81
2018-06-05T14:47:04.603Z,989.79
2018-06-05T14:48:15.032Z,989.85
2018-06-05T14:49:25.840Z,989.92
2018-06-05T14:50:36.365Z,989.89
2018-06-05T14:51:46.749Z,989.9
2018-06-05T14:52:57.442Z,989.97
2018-06-05T14:54:08.174Z,989.91
2018-06-05T14:55:18.653Z,989.96
2018-06-05T14:56:29.536Z,989.95
2018-06-05T14:57:40.225Z,989.94
2018-06-05T14:58:51.269Z,989.99
2018-06-05T15:00:02.214Z,990.03
2018-06-05T15:01:13.090Z,990.04
2018-06-05T15:02:27.019Z,990.05
2018-06-05T15:03:39.206Z,990.02
2018-06-05T15:04:52.872Z,990.15
2018-06-05T15:06:04.312Z,990.08
2018-06-05T15:07:16.178Z,990.06
2018-06-05T15:08:29.014Z,990.04